PILOTS ONLINE: 325    ATC ONLINE: 49

KTOA - Zamperini Field

Location

City Torrance
Country  United States
Latitude 33° 48' 12" N
Longitude 118° 20' 23" W
Elevation 103 ft
Type Small Airport

Runways

11L/29R 5001 ft / 150 ft
11R/29L 3000 ft / 75 ft

Weather

METAR
2014/07/23 02:57
KTOA 230257Z 30010KT 20SM SKC 23/16 A2999
TAF
No TAF available

Outbound flights

Inbound flights